CCM774 LFKJ-LFPO
Flight info
| Callsign | CCM774 |
|---|---|
| Flight time | N/A |
| Altitude | 34000 |
| Route | LONSU M622 PIGOS DCT BARSO DCT OKTET DCT GIPNO DCT BULOL DCT IDAVO DCT ARDOL |
| Aircraft | A320/M-SDE3FGHIRWY/LB1 |
Departure
| Time | 2026-04-10 15:11 |
|---|---|
| Airport | Ajaccio Napoléon Bonaparte airport (LFKJ) |
Arrival
| Time | N/A |
|---|---|
| Airport | Paris-Orly Airport (LFPO) |
| Time | Latitude | Longitude | Altitude | Speed | Heading |
|---|---|---|---|---|---|
| 2026-04-10 14:47 | 41.92251 | 8.79742 | 34 ft | 0 kts | 345° |
| 2026-04-10 15:00 | 41.92247 | 8.79743 | 34 ft | 1 kts | 332° |
| 2026-04-10 15:01 | 41.92236 | 8.79755 | 34 ft | 2 kts | 330° |
| 2026-04-10 15:01 | 41.92222 | 8.79764 | 34 ft | 2 kts | 329° |
| 2026-04-10 15:01 | 41.92209 | 8.79775 | 34 ft | 2 kts | 330° |
| 2026-04-10 15:01 | 41.92196 | 8.79785 | 34 ft | 2 kts | 329° |
| 2026-04-10 15:02 | 41.92189 | 8.79791 | 34 ft | 0 kts | 342° |
| 2026-04-10 15:02 | 41.92186 | 8.79791 | 34 ft | 1 kts | 32° |
| 2026-04-10 15:02 | 41.92181 | 8.79788 | 34 ft | 0 kts | 28° |
| 2026-04-10 15:06 | 41.92194 | 8.79796 | 34 ft | 3 kts | 24° |
| 2026-04-10 15:06 | 41.92220 | 8.79812 | 34 ft | 4 kts | 24° |
| 2026-04-10 15:06 | 41.92248 | 8.79829 | 34 ft | 4 kts | 24° |
| 2026-04-10 15:07 | 41.92279 | 8.79847 | 34 ft | 5 kts | 24° |
| 2026-04-10 15:07 | 41.92328 | 8.79877 | 34 ft | 10 kts | 24° |
| 2026-04-10 15:07 | 41.92413 | 8.79928 | 34 ft | 15 kts | 24° |
| 2026-04-10 15:07 | 41.92513 | 8.79989 | 35 ft | 15 kts | 25° |
| 2026-04-10 15:08 | 41.92612 | 8.80051 | 36 ft | 15 kts | 25° |
| 2026-04-10 15:08 | 41.92709 | 8.80111 | 38 ft | 15 kts | 25° |
| 2026-04-10 15:08 | 41.92799 | 8.80192 | 38 ft | 15 kts | 42° |
| 2026-04-10 15:08 | 41.92884 | 8.80295 | 39 ft | 16 kts | 43° |
| 2026-04-10 15:09 | 41.92956 | 8.80410 | 40 ft | 15 kts | 70° |
| 2026-04-10 15:09 | 41.92962 | 8.80565 | 39 ft | 16 kts | 65° |
| 2026-04-10 15:09 | 41.93057 | 8.80629 | 40 ft | 15 kts | 11° |
| 2026-04-10 15:09 | 41.93121 | 8.80650 | 41 ft | 1 kts | 64° |
| 2026-04-10 15:10 | 41.93115 | 8.80662 | 41 ft | 2 kts | 135° |
| 2026-04-10 15:10 | 41.93080 | 8.80677 | 41 ft | 7 kts | 187° |
| 2026-04-10 15:10 | 41.92995 | 8.80629 | 39 ft | 30 kts | 205° |
| 2026-04-10 15:10 | 41.92547 | 8.80353 | 36 ft | 111 kts | 205° |
| 2026-04-10 15:11 | 41.91627 | 8.79779 | 78 ft | 171 kts | 204° |
| 2026-04-10 15:11 | 41.90546 | 8.79062 | 788 ft | 176 kts | 208° |
| 2026-04-10 15:11 | 41.89685 | 8.78008 | 1597 ft | 175 kts | 248° |
| 2026-04-10 15:11 | 41.89416 | 8.76449 | 2410 ft | 174 kts | 269° |
| 2026-04-10 15:12 | 41.89113 | 8.74863 | 2943 ft | 190 kts | 236° |
| 2026-04-10 15:12 | 41.88322 | 8.73321 | 3469 ft | 210 kts | 236° |
| 2026-04-10 15:12 | 41.87490 | 8.71633 | 4024 ft | 230 kts | 237° |
| 2026-04-10 15:12 | 41.86597 | 8.69764 | 4582 ft | 249 kts | 238° |
| 2026-04-10 15:13 | 41.85634 | 8.67695 | 5131 ft | 268 kts | 239° |
| 2026-04-10 15:13 | 41.84654 | 8.65537 | 5872 ft | 276 kts | 239° |
| 2026-04-10 15:13 | 41.83918 | 8.63173 | 6667 ft | 281 kts | 262° |
| 2026-04-10 15:13 | 41.84060 | 8.60624 | 7464 ft | 284 kts | 289° |
| 2026-04-10 15:14 | 41.85081 | 8.58390 | 8253 ft | 287 kts | 317° |
| 2026-04-10 15:14 | 41.86762 | 8.56976 | 9046 ft | 289 kts | 336° |
| 2026-04-10 15:14 | 41.88609 | 8.55892 | 9849 ft | 293 kts | 336° |
| 2026-04-10 15:14 | 41.90472 | 8.54790 | 10541 ft | 300 kts | 336° |
| 2026-04-10 15:15 | 41.92444 | 8.53622 | 10915 ft | 318 kts | 336° |
| 2026-04-10 15:15 | 41.94511 | 8.52398 | 11225 ft | 337 kts | 336° |
| 2026-04-10 15:15 | 41.96715 | 8.51093 | 11506 ft | 354 kts | 336° |
| 2026-04-10 15:15 | 41.99036 | 8.49718 | 11808 ft | 369 kts | 336° |
| 2026-04-10 15:16 | 42.01381 | 8.48326 | 12305 ft | 376 kts | 336° |
| 2026-04-10 15:16 | 42.03782 | 8.46902 | 12891 ft | 380 kts | 336° |
| 2026-04-10 15:16 | 42.06233 | 8.45445 | 13485 ft | 383 kts | 336° |
| 2026-04-10 15:16 | 42.08655 | 8.44005 | 14053 ft | 386 kts | 336° |
| 2026-04-10 15:17 | 42.11130 | 8.42531 | 14609 ft | 389 kts | 336° |
| 2026-04-10 15:17 | 42.13619 | 8.41050 | 15154 ft | 391 kts | 336° |
| 2026-04-10 15:17 | 42.16106 | 8.39566 | 15679 ft | 394 kts | 336° |
| 2026-04-10 15:17 | 42.18624 | 8.38061 | 16190 ft | 397 kts | 336° |
| 2026-04-10 15:18 | 42.21152 | 8.36551 | 16687 ft | 400 kts | 336° |
| 2026-04-10 15:18 | 42.23698 | 8.35030 | 17171 ft | 403 kts | 336° |
| 2026-04-10 15:18 | 42.26247 | 8.33503 | 17646 ft | 406 kts | 336° |
| 2026-04-10 15:18 | 42.28822 | 8.31960 | 18111 ft | 408 kts | 336° |
| 2026-04-10 15:19 | 42.31440 | 8.30388 | 18568 ft | 411 kts | 336° |
| 2026-04-10 15:19 | 42.34049 | 8.28820 | 19004 ft | 413 kts | 336° |
| 2026-04-10 15:19 | 42.36679 | 8.27241 | 19431 ft | 416 kts | 336° |
| 2026-04-10 15:19 | 42.39318 | 8.25655 | 19850 ft | 418 kts | 336° |
| 2026-04-10 15:20 | 42.41994 | 8.24044 | 20261 ft | 421 kts | 336° |
| 2026-04-10 15:20 | 42.44672 | 8.22432 | 20662 ft | 423 kts | 336° |
| 2026-04-10 15:20 | 42.47349 | 8.20816 | 21051 ft | 426 kts | 336° |
| 2026-04-10 15:20 | 42.50078 | 8.19169 | 21438 ft | 428 kts | 336° |
| 2026-04-10 15:21 | 42.52781 | 8.17536 | 21810 ft | 430 kts | 336° |
| 2026-04-10 15:21 | 42.55525 | 8.15876 | 22177 ft | 433 kts | 336° |
| 2026-04-10 15:21 | 42.58280 | 8.14208 | 22538 ft | 435 kts | 336° |
| 2026-04-10 15:21 | 42.61042 | 8.12534 | 22890 ft | 437 kts | 336° |
| 2026-04-10 15:22 | 42.63831 | 8.10842 | 23235 ft | 439 kts | 336° |
| 2026-04-10 15:22 | 42.66653 | 8.09128 | 23572 ft | 441 kts | 336° |
| 2026-04-10 15:22 | 42.69442 | 8.07433 | 23897 ft | 443 kts | 336° |
| 2026-04-10 15:22 | 42.72273 | 8.05711 | 24222 ft | 445 kts | 336° |
| 2026-04-10 15:23 | 42.75088 | 8.03996 | 24536 ft | 447 kts | 336° |
| 2026-04-10 15:23 | 42.77902 | 8.02192 | 24842 ft | 449 kts | 333° |
| 2026-04-10 15:23 | 42.80651 | 8.00171 | 25137 ft | 451 kts | 330° |
| 2026-04-10 15:23 | 42.83425 | 7.98064 | 25430 ft | 453 kts | 331° |
| 2026-04-10 15:24 | 42.86159 | 7.95992 | 25712 ft | 455 kts | 331° |
| 2026-04-10 15:24 | 42.88913 | 7.93902 | 25989 ft | 457 kts | 331° |
| 2026-04-10 15:24 | 42.91707 | 7.91778 | 26264 ft | 459 kts | 331° |
| 2026-04-10 15:24 | 42.94481 | 7.89668 | 26529 ft | 461 kts | 331° |
| 2026-04-10 15:25 | 42.97282 | 7.87535 | 26789 ft | 462 kts | 331° |
| 2026-04-10 15:25 | 43.00114 | 7.85376 | 27042 ft | 464 kts | 331° |
| 2026-04-10 15:25 | 43.02937 | 7.83221 | 27292 ft | 466 kts | 331° |
| 2026-04-10 15:25 | 43.05764 | 7.81061 | 27532 ft | 467 kts | 331° |
| 2026-04-10 15:26 | 43.08597 | 7.78893 | 27765 ft | 469 kts | 330° |
| 2026-04-10 15:26 | 43.11445 | 7.76698 | 27990 ft | 470 kts | 330° |
| 2026-04-10 15:26 | 43.14319 | 7.74474 | 28212 ft | 472 kts | 330° |
| 2026-04-10 15:26 | 43.17185 | 7.72255 | 28421 ft | 473 kts | 330° |
| 2026-04-10 15:27 | 43.20049 | 7.70036 | 28631 ft | 474 kts | 330° |
| 2026-04-10 15:27 | 43.22908 | 7.67819 | 28913 ft | 473 kts | 330° |
| 2026-04-10 15:27 | 43.25788 | 7.65583 | 29194 ft | 473 kts | 330° |
| 2026-04-10 15:27 | 43.28618 | 7.63384 | 29469 ft | 472 kts | 330° |
| 2026-04-10 15:28 | 43.31467 | 7.61168 | 29743 ft | 472 kts | 330° |
| 2026-04-10 15:28 | 43.34308 | 7.58960 | 30016 ft | 471 kts | 330° |
| 2026-04-10 15:28 | 43.37156 | 7.56745 | 30287 ft | 470 kts | 330° |
| 2026-04-10 15:28 | 43.40017 | 7.54518 | 30558 ft | 470 kts | 330° |
| 2026-04-10 15:29 | 43.42852 | 7.52307 | 30824 ft | 469 kts | 330° |
| 2026-04-10 15:29 | 43.45687 | 7.50095 | 31088 ft | 469 kts | 330° |
| 2026-04-10 15:29 | 43.48523 | 7.47879 | 31351 ft | 468 kts | 330° |
| 2026-04-10 15:29 | 43.51351 | 7.45667 | 31614 ft | 467 kts | 330° |
| 2026-04-10 15:30 | 43.54141 | 7.43482 | 31867 ft | 467 kts | 330° |
| 2026-04-10 15:30 | 43.56974 | 7.41262 | 32113 ft | 466 kts | 330° |
| 2026-04-10 15:30 | 43.59791 | 7.39051 | 32357 ft | 466 kts | 330° |
| 2026-04-10 15:30 | 43.62585 | 7.36785 | 32595 ft | 465 kts | 328° |
| 2026-04-10 15:31 | 43.65302 | 7.34332 | 32828 ft | 465 kts | 326° |
| 2026-04-10 15:31 | 43.68010 | 7.31853 | 33054 ft | 464 kts | 326° |
| 2026-04-10 15:31 | 43.70684 | 7.29407 | 33278 ft | 464 kts | 326° |
| 2026-04-10 15:31 | 43.73381 | 7.26937 | 33500 ft | 463 kts | 326° |
| 2026-04-10 15:32 | 43.76047 | 7.24492 | 33712 ft | 463 kts | 326° |
| 2026-04-10 15:32 | 43.78750 | 7.22011 | 33925 ft | 462 kts | 326° |
| 2026-04-10 15:32 | 43.81438 | 7.19541 | 34131 ft | 462 kts | 326° |
| 2026-04-10 15:32 | 43.84093 | 7.17098 | 34215 ft | 462 kts | 326° |
| 2026-04-10 15:33 | 43.89451 | 7.12160 | 34236 ft | 461 kts | 326° |
| 2026-04-10 15:33 | 43.94763 | 7.07253 | 34241 ft | 461 kts | 326° |
| 2026-04-10 15:34 | 44.00128 | 7.02289 | 34240 ft | 461 kts | 326° |
| 2026-04-10 15:34 | 44.05457 | 6.97344 | 34256 ft | 461 kts | 326° |
| 2026-04-10 15:35 | 44.10770 | 6.92404 | 34272 ft | 461 kts | 326° |
| 2026-04-10 15:35 | 44.16109 | 6.87428 | 34284 ft | 461 kts | 326° |
| 2026-04-10 15:36 | 44.21452 | 6.82432 | 34292 ft | 461 kts | 326° |
| 2026-04-10 15:36 | 44.26747 | 6.77470 | 34297 ft | 461 kts | 326° |
| 2026-04-10 15:37 | 44.32077 | 6.72465 | 34294 ft | 461 kts | 326° |
| 2026-04-10 15:37 | 44.37371 | 6.67483 | 34293 ft | 461 kts | 326° |
| 2026-04-10 15:38 | 44.42715 | 6.62443 | 34295 ft | 461 kts | 326° |
| 2026-04-10 15:38 | 44.48017 | 6.57431 | 34296 ft | 461 kts | 326° |
| 2026-04-10 15:39 | 44.53307 | 6.52422 | 34295 ft | 461 kts | 326° |
| 2026-04-10 15:39 | 44.58636 | 6.47366 | 34286 ft | 461 kts | 326° |
| 2026-04-10 15:40 | 44.63940 | 6.42323 | 34280 ft | 461 kts | 326° |
| 2026-04-10 15:40 | 44.69257 | 6.37256 | 34276 ft | 461 kts | 326° |
| 2026-04-10 15:41 | 44.74538 | 6.32210 | 34277 ft | 461 kts | 325° |
| 2026-04-10 15:41 | 44.79837 | 6.27139 | 34291 ft | 461 kts | 325° |
| 2026-04-10 15:42 | 44.85126 | 6.22063 | 34305 ft | 461 kts | 325° |
| 2026-04-10 15:42 | 44.90422 | 6.16970 | 34313 ft | 461 kts | 325° |
| 2026-04-10 15:43 | 44.95723 | 6.11863 | 34321 ft | 461 kts | 326° |
| 2026-04-10 15:43 | 45.00997 | 6.06777 | 34328 ft | 461 kts | 326° |
| 2026-04-10 15:44 | 45.06303 | 6.01644 | 34313 ft | 461 kts | 325° |
| 2026-04-10 15:44 | 45.11615 | 5.96490 | 34299 ft | 461 kts | 325° |
| 2026-04-10 15:45 | 45.16895 | 5.91355 | 34280 ft | 461 kts | 325° |
| 2026-04-10 15:45 | 45.22178 | 5.86205 | 34264 ft | 461 kts | 325° |
| 2026-04-10 15:46 | 45.27435 | 5.81067 | 34250 ft | 461 kts | 325° |
| 2026-04-10 15:46 | 45.32717 | 5.75893 | 34236 ft | 461 kts | 325° |
| 2026-04-10 15:47 | 45.37995 | 5.70712 | 34227 ft | 461 kts | 325° |
| 2026-04-10 15:47 | 45.43265 | 5.65526 | 34222 ft | 461 kts | 325° |
| 2026-04-10 15:48 | 45.48541 | 5.60322 | 34220 ft | 461 kts | 325° |
| 2026-04-10 15:48 | 45.53786 | 5.55135 | 34220 ft | 462 kts | 325° |
| 2026-04-10 15:49 | 45.59165 | 5.50121 | 34217 ft | 462 kts | 328° |
| 2026-04-10 15:49 | 45.64585 | 5.45281 | 34215 ft | 462 kts | 328° |
| 2026-04-10 15:50 | 45.70015 | 5.40421 | 34213 ft | 462 kts | 328° |
| 2026-04-10 15:50 | 45.75451 | 5.35546 | 34211 ft | 461 kts | 328° |
| 2026-04-10 15:51 | 45.80867 | 5.30676 | 34213 ft | 461 kts | 327° |
| 2026-04-10 15:51 | 45.86304 | 5.25776 | 34212 ft | 461 kts | 327° |
| 2026-04-10 15:52 | 45.91742 | 5.20863 | 34209 ft | 461 kts | 327° |
| 2026-04-10 15:52 | 45.97177 | 5.15943 | 34208 ft | 461 kts | 327° |
| 2026-04-10 15:53 | 46.02574 | 5.11046 | 34207 ft | 461 kts | 328° |
| 2026-04-10 15:53 | 46.08301 | 5.06855 | 34207 ft | 462 kts | 336° |
| 2026-04-10 15:54 | 46.14157 | 5.03132 | 34207 ft | 462 kts | 336° |
| 2026-04-10 15:54 | 46.20044 | 4.99378 | 34203 ft | 461 kts | 336° |
| 2026-04-10 15:55 | 46.25875 | 4.95651 | 34199 ft | 461 kts | 336° |
| 2026-04-10 15:55 | 46.31762 | 4.91876 | 34200 ft | 461 kts | 336° |
| 2026-04-10 15:56 | 46.37620 | 4.88110 | 34204 ft | 461 kts | 336° |
| 2026-04-10 15:56 | 46.43487 | 4.84329 | 34208 ft | 461 kts | 336° |
| 2026-04-10 15:57 | 46.45444 | 4.83066 | 34210 ft | 461 kts | 336° |
| 2026-04-10 15:58 | 46.67010 | 4.69081 | 34207 ft | 461 kts | 336° |
| 2026-04-10 15:59 | 46.72845 | 4.65276 | 34205 ft | 461 kts | 336° |
| 2026-04-10 15:59 | 46.78700 | 4.61471 | 34206 ft | 461 kts | 336° |
| 2026-04-10 16:00 | 46.84569 | 4.57682 | 34207 ft | 461 kts | 336° |
| 2026-04-10 16:00 | 46.90427 | 4.53887 | 34209 ft | 461 kts | 336° |
| 2026-04-10 16:01 | 46.96272 | 4.50090 | 34210 ft | 461 kts | 336° |
| 2026-04-10 16:01 | 47.02160 | 4.46256 | 34212 ft | 461 kts | 336° |